sensor_id;sensor_type;location;lat;lon;timestamp;pressure;altitude;pressure_sealevel;temperature;humidity
79709;BME280;69203;48.964;9.118;2024-03-23T00:52:09;98093.97;;;7.32;100.00
79709;BME280;69203;48.964;9.118;2024-03-23T00:54:10;98102.03;;;7.42;100.00
79709;BME280;69203;48.964;9.118;2024-03-23T00:55:10;98093.97;;;7.32;100.00
79709;BME280;69203;48.964;9.118;2024-03-23T00:56:11;98093.97;;;7.32;100.00
79709;BME280;69203;48.964;9.118;2024-03-23T00:57:11;98093.91;;;7.34;100.00
79709;BME280;69203;48.964;9.118;2024-03-23T00:58:11;98089.06;;;7.28;100.00
79709;BME280;69203;48.964;9.118;2024-03-23T00:59:11;98091.78;;;7.26;100.00
79709;BME280;69203;48.964;9.118;2024-03-23T01:00:12;98082.91;;;7.29;100.00
79709;BME280;69203;48.964;9.118;2024-03-23T01:01:12;98081.59;;;7.48;100.00
79709;BME280;69203;48.964;9.118;2024-03-23T01:02:12;98086.00;;;7.60;100.00
79709;BME280;69203;48.964;9.118;2024-03-23T01:03:13;98079.59;;;7.64;100.00
79709;BME280;69203;48.964;9.118;2024-03-23T01:04:13;98081.59;;;7.61;100.00
79709;BME280;69203;48.964;9.118;2024-03-23T01:05:13;98085.78;;;7.76;100.00
79709;BME280;69203;48.964;9.118;2024-03-23T01:06:13;98087.13;;;7.82;100.00
79709;BME280;69203;48.964;9.118;2024-03-23T01:07:14;98089.50;;;8.10;100.00
79709;BME280;69203;48.964;9.118;2024-03-23T01:08:14;98080.41;;;8.16;100.00
79709;BME280;69203;48.964;9.118;2024-03-23T01:09:14;98084.50;;;8.07;100.00
79709;BME280;69203;48.964;9.118;2024-03-23T01:10:15;98080.94;;;8.08;100.00
79709;BME280;69203;48.964;9.118;2024-03-23T01:11:15;98095.03;;;8.18;100.00
79709;BME280;69203;48.964;9.118;2024-03-23T01:12:15;98085.31;;;8.20;100.00
79709;BME280;69203;48.964;9.118;2024-03-23T01:13:15;98080.31;;;8.30;100.00
79709;BME280;69203;48.964;9.118;2024-03-23T01:14:16;98085.31;;;8.33;100.00
79709;BME280;69203;48.964;9.118;2024-03-23T01:15:16;98085.09;;;8.36;100.00
79709;BME280;69203;48.964;9.118;2024-03-23T01:16:16;98079.97;;;8.22;100.00
79709;BME280;69203;48.964;9.118;2024-03-23T01:17:16;98072.88;;;8.11;100.00
79709;BME280;69203;48.964;9.118;2024-03-23T01:18:17;98069.00;;;8.17;100.00
79709;BME280;69203;48.964;9.118;2024-03-23T01:19:18;98058.53;;;8.29;100.00
79709;BME280;69203;48.964;9.118;2024-03-23T01:20:18;98058.97;;;8.11;100.00
79709;BME280;69203;48.964;9.118;2024-03-23T01:21:18;98065.59;;;8.03;100.00
79709;BME280;69203;48.964;9.118;2024-03-23T01:22:19;98053.66;;;7.99;100.00
79709;BME280;69203;48.964;9.118;2024-03-23T01:23:19;98056.69;;;7.93;100.00
79709;BME280;69203;48.964;9.118;2024-03-23T01:24:20;98058.56;;;8.04;100.00
79709;BME280;69203;48.964;9.118;2024-03-23T01:25:20;98056.66;;;8.19;100.00
79709;BME280;69203;48.964;9.118;2024-03-23T01:26:21;98063.66;;;8.31;100.00
79709;BME280;69203;48.964;9.118;2024-03-23T01:27:22;98064.91;;;8.38;100.00
79709;BME280;69203;48.964;9.118;2024-03-23T01:28:23;98066.31;;;8.55;100.00
79709;BME280;69203;48.964;9.118;2024-03-23T01:29:24;98068.94;;;8.78;100.00
79709;BME280;69203;48.964;9.118;2024-03-23T01:30:24;98065.38;;;8.79;100.00
79709;BME280;69203;48.964;9.118;2024-03-23T01:31:24;98065.88;;;8.84;100.00
79709;BME280;69203;48.964;9.118;2024-03-23T01:32:24;98066.50;;;8.88;100.00
79709;BME280;69203;48.964;9.118;2024-03-23T01:33:25;98062.84;;;8.78;100.00
79709;BME280;69203;48.964;9.118;2024-03-23T01:34:25;98064.47;;;8.68;100.00
79709;BME280;69203;48.964;9.118;2024-03-23T01:35:25;98059.47;;;8.65;100.00
79709;BME280;69203;48.964;9.118;2024-03-23T01:36:25;98066.09;;;8.58;100.00
79709;BME280;69203;48.964;9.118;2024-03-23T01:37:26;98071.88;;;8.50;100.00
79709;BME280;69203;48.964;9.118;2024-03-23T01:38:26;98066.59;;;8.39;100.00
79709;BME280;69203;48.964;9.118;2024-03-23T01:39:26;98055.28;;;8.38;100.00
79709;BME280;69203;48.964;9.118;2024-03-23T01:40:26;98051.81;;;8.38;100.00
79709;BME280;69203;48.964;9.118;2024-03-23T01:41:31;98051.41;;;8.44;100.00
79709;BME280;69203;48.964;9.118;2024-03-23T01:42:31;98058.41;;;8.43;100.00
79709;BME280;69203;48.964;9.118;2024-03-23T01:43:31;98053.41;;;8.40;100.00
79709;BME280;69203;48.964;9.118;2024-03-23T01:44:32;98048.47;;;8.36;100.00
79709;BME280;69203;48.964;9.118;2024-03-23T01:45:32;98038.97;;;8.35;100.00
79709;BME280;69203;48.964;9.118;2024-03-23T01:46:32;98043.38;;;8.34;100.00
79709;BME280;69203;48.964;9.118;2024-03-23T01:47:33;98031.91;;;8.48;100.00
79709;BME280;69203;48.964;9.118;2024-03-23T01:48:33;98034.56;;;8.35;100.00
79709;BME280;69203;48.964;9.118;2024-03-23T01:49:34;98034.06;;;8.18;100.00
79709;BME280;69203;48.964;9.118;2024-03-23T01:50:35;98022.38;;;8.11;100.00
79709;BME280;69203;48.964;9.118;2024-03-23T01:51:35;98017.72;;;8.03;100.00
79709;BME280;69203;48.964;9.118;2024-03-23T01:52:36;98016.13;;;8.00;100.00
79709;BME280;69203;48.964;9.118;2024-03-23T01:53:36;98011.13;;;7.97;100.00
79709;BME280;69203;48.964;9.118;2024-03-23T01:54:36;98009.78;;;7.92;100.00
79709;BME280;69203;48.964;9.118;2024-03-23T01:55:38;98011.13;;;7.97;100.00
79709;BME280;69203;48.964;9.118;2024-03-23T01:56:39;98020.84;;;7.95;100.00
79709;BME280;69203;48.964;9.118;2024-03-23T01:57:39;98019.81;;;7.85;100.00
79709;BME280;69203;48.964;9.118;2024-03-23T01:58:39;98017.53;;;7.68;100.00
79709;BME280;69203;48.964;9.118;2024-03-23T01:59:39;98013.38;;;7.66;100.00
79709;BME280;69203;48.964;9.118;2024-03-23T02:00:40;98003.31;;;7.85;100.00
79709;BME280;69203;48.964;9.118;2024-03-23T02:01:40;98005.50;;;7.91;100.00
79709;BME280;69203;48.964;9.118;2024-03-23T02:02:44;98006.19;;;8.05;100.00
79709;BME280;69203;48.964;9.118;2024-03-23T02:03:44;98007.53;;;7.98;100.00
79709;BME280;69203;48.964;9.118;2024-03-23T02:04:45;98001.44;;;7.87;100.00
79709;BME280;69203;48.964;9.118;2024-03-23T02:05:45;98002.53;;;7.95;100.00
79709;BME280;69203;48.964;9.118;2024-03-23T02:06:45;97995.38;;;7.86;100.00
79709;BME280;69203;48.964;9.118;2024-03-23T02:07:45;97990.66;;;7.79;100.00
79709;BME280;69203;48.964;9.118;2024-03-23T02:08:46;97998.50;;;7.79;100.00
79709;BME280;69203;48.964;9.118;2024-03-23T02:09:46;97996.19;;;7.87;100.00
79709;BME280;69203;48.964;9.118;2024-03-23T02:10:47;97991.06;;;7.98;100.00
79709;BME280;69203;48.964;9.118;2024-03-23T02:11:48;98001.28;;;8.01;100.00
79709;BME280;69203;48.964;9.118;2024-03-23T02:12:48;98001.19;;;8.02;100.00
79709;BME280;69203;48.964;9.118;2024-03-23T02:13:48;98003.06;;;8.00;100.00
79709;BME280;69203;48.964;9.118;2024-03-23T02:14:48;97997.97;;;7.86;100.00
79709;BME280;69203;48.964;9.118;2024-03-23T02:15:48;97994.84;;;7.69;100.00
79709;BME280;69203;48.964;9.118;2024-03-23T02:16:49;97999.06;;;7.58;100.00
79709;BME280;69203;48.964;9.118;2024-03-23T02:17:49;97998.63;;;7.52;100.00
79709;BME280;69203;48.964;9.118;2024-03-23T02:18:49;98001.97;;;7.54;100.00
79709;BME280;69203;48.964;9.118;2024-03-23T02:19:50;97994.66;;;7.59;100.00
79709;BME280;69203;48.964;9.118;2024-03-23T02:20:50;97986.38;;;7.78;100.00
79709;BME280;69203;48.964;9.118;2024-03-23T02:21:52;97992.41;;;7.91;100.00
79709;BME280;69203;48.964;9.118;2024-03-23T02:22:55;97986.75;;;7.97;100.00
79709;BME280;69203;48.964;9.118;2024-03-23T02:23:55;97987.59;;;7.97;100.00
79709;BME280;69203;48.964;9.118;2024-03-23T02:24:55;97995.03;;;7.91;100.00
79709;BME280;69203;48.964;9.118;2024-03-23T02:25:57;97990.72;;;8.02;100.00
79709;BME280;69203;48.964;9.118;2024-03-23T02:26:57;97990.09;;;7.99;100.00
79709;BME280;69203;48.964;9.118;2024-03-23T02:27:57;97989.56;;;8.06;100.00
79709;BME280;69203;48.964;9.118;2024-03-23T02:28:58;97985.16;;;8.07;100.00
79709;BME280;69203;48.964;9.118;2024-03-23T02:29:59;97986.69;;;7.86;100.00
79709;BME280;69203;48.964;9.118;2024-03-23T02:30:59;97970.31;;;7.58;100.00
79709;BME280;69203;48.964;9.118;2024-03-23T02:32:01;97970.97;;;7.49;100.00
79709;BME280;69203;48.964;9.118;2024-03-23T02:33:01;97960.38;;;7.51;100.00
79709;BME280;69203;48.964;9.118;2024-03-23T02:34:02;97960.91;;;7.69;100.00
79709;BME280;69203;48.964;9.118;2024-03-23T02:35:03;97965.50;;;7.65;100.00
79709;BME280;69203;48.964;9.118;2024-03-23T02:36:04;97957.16;;;7.60;100.00
79709;BME280;69203;48.964;9.118;2024-03-23T02:37:10;97962.06;;;8.14;100.00
79709;BME280;69203;48.964;9.118;2024-03-23T02:38:10;97969.66;;;8.17;100.00
79709;BME280;69203;48.964;9.118;2024-03-23T02:39:10;97969.25;;;8.10;100.00
79709;BME280;69203;48.964;9.118;2024-03-23T02:40:10;97969.38;;;8.09;100.00
79709;BME280;69203;48.964;9.118;2024-03-23T02:41:11;97970.50;;;8.17;100.00
79709;BME280;69203;48.964;9.118;2024-03-23T02:42:11;97969.16;;;8.12;100.00
79709;BME280;69203;48.964;9.118;2024-03-23T02:43:11;97964.34;;;8.05;100.00
79709;BME280;69203;48.964;9.118;2024-03-23T02:44:11;97961.03;;;8.03;100.00
79709;BME280;69203;48.964;9.118;2024-03-23T02:45:12;97976.75;;;8.15;100.00
79709;BME280;69203;48.964;9.118;2024-03-23T02:46:12;97982.81;;;8.15;100.00
79709;BME280;69203;48.964;9.118;2024-03-23T02:47:12;97980.22;;;8.15;100.00
79709;BME280;69203;48.964;9.118;2024-03-23T02:48:13;97973.19;;;8.28;100.00
79709;BME280;69203;48.964;9.118;2024-03-23T02:49:13;97971.00;;;8.35;100.00
79709;BME280;69203;48.964;9.118;2024-03-23T02:50:14;97972.94;;;8.44;100.00
79709;BME280;69203;48.964;9.118;2024-03-23T02:51:15;97982.94;;;8.50;100.00
79709;BME280;69203;48.964;9.118;2024-03-23T02:52:15;97984.44;;;8.65;100.00
79709;BME280;69203;48.964;9.118;2024-03-23T02:53:16;97989.22;;;8.71;100.00
79709;BME280;69203;48.964;9.118;2024-03-23T02:54:17;97983.31;;;8.80;100.00
79709;BME280;69203;48.964;9.118;2024-03-23T02:55:17;97965.34;;;8.76;100.00
79709;BME280;69203;48.964;9.118;2024-03-23T02:56:18;97974.91;;;8.88;100.00
79709;BME280;69203;48.964;9.118;2024-03-23T02:57:18;97974.91;;;8.88;100.00
79709;BME280;69203;48.964;9.118;2024-03-23T02:58:18;97976.19;;;8.82;100.00
79709;BME280;69203;48.964;9.118;2024-03-23T02:59:18;97974.50;;;8.81;100.00
79709;BME280;69203;48.964;9.118;2024-03-23T03:00:19;97974.63;;;8.80;100.00
79709;BME280;69203;48.964;9.118;2024-03-23T03:01:19;97975.19;;;8.72;100.00
79709;BME280;69203;48.964;9.118;2024-03-23T03:02:19;97978.53;;;8.74;100.00
79709;BME280;69203;48.964;9.118;2024-03-23T03:03:20;97971.84;;;8.70;100.00
79709;BME280;69203;48.964;9.118;2024-03-23T03:04:20;97968.06;;;8.74;100.00
79709;BME280;69203;48.964;9.118;2024-03-23T03:05:20;97969.34;;;8.69;100.00
79709;BME280;69203;48.964;9.118;2024-03-23T03:06:24;97961.94;;;8.63;100.00
79709;BME280;69203;48.964;9.118;2024-03-23T03:07:24;97963.56;;;8.53;100.00
79709;BME280;69203;48.964;9.118;2024-03-23T03:08:24;97961.88;;;8.40;100.00
79709;BME280;69203;48.964;9.118;2024-03-23T03:09:25;97960.03;;;8.30;100.00
79709;BME280;69203;48.964;9.118;2024-03-23T03:10:25;97959.59;;;8.23;100.00
79709;BME280;69203;48.964;9.118;2024-03-23T03:11:25;97945.78;;;8.21;100.00
79709;BME280;69203;48.964;9.118;2024-03-23T03:12:25;97944.00;;;8.22;100.00
79709;BME280;69203;48.964;9.118;2024-03-23T03:13:27;97943.50;;;8.17;100.00
79709;BME280;69203;48.964;9.118;2024-03-23T03:14:27;97936.50;;;8.17;100.00
79709;BME280;69203;48.964;9.118;2024-03-23T03:15:28;97933.00;;;8.05;100.00
79709;BME280;69203;48.964;9.118;2024-03-23T03:16:28;97924.47;;;8.15;100.00
79709;BME280;69203;48.964;9.118;2024-03-23T03:17:30;97929.84;;;8.13;100.00
79709;BME280;69203;48.964;9.118;2024-03-23T03:18:30;97931.78;;;8.22;100.00
79709;BME280;69203;48.964;9.118;2024-03-23T03:19:31;97930.78;;;8.12;100.00
79709;BME280;69203;48.964;9.118;2024-03-23T03:20:33;97929.22;;;8.10;100.00
79709;BME280;69203;48.964;9.118;2024-03-23T03:21:34;97930.38;;;8.05;100.00
79709;BME280;69203;48.964;9.118;2024-03-23T03:22:35;97932.06;;;8.06;100.00
79709;BME280;69203;48.964;9.118;2024-03-23T03:23:35;97933.84;;;8.06;100.00
79709;BME280;69203;48.964;9.118;2024-03-23T03:24:35;97929.88;;;8.00;100.00
79709;BME280;69203;48.964;9.118;2024-03-23T03:25:35;97927.88;;;8.04;100.00
79709;BME280;69203;48.964;9.118;2024-03-23T03:26:35;97935.84;;;8.02;100.00
79709;BME280;69203;48.964;9.118;2024-03-23T03:27:36;97938.97;;;8.07;100.00
79709;BME280;69203;48.964;9.118;2024-03-23T03:28:36;97936.75;;;8.14;100.00
79709;BME280;69203;48.964;9.118;2024-03-23T03:29:36;97930.69;;;8.37;100.00
79709;BME280;69203;48.964;9.118;2024-03-23T03:30:36;97918.44;;;8.73;100.00
79709;BME280;69203;48.964;9.118;2024-03-23T03:31:37;97919.19;;;8.75;100.00
79709;BME280;69203;48.964;9.118;2024-03-23T03:32:37;97919.78;;;8.78;100.00
79709;BME280;69203;48.964;9.118;2024-03-23T03:33:38;97932.59;;;8.70;100.00
79709;BME280;69203;48.964;9.118;2024-03-23T03:34:38;97930.03;;;8.81;100.00
79709;BME280;69203;48.964;9.118;2024-03-23T03:35:39;97932.31;;;8.97;100.00
79709;BME280;69203;48.964;9.118;2024-03-23T03:36:39;97932.22;;;8.99;100.00
79709;BME280;69203;48.964;9.118;2024-03-23T03:37:39;97932.44;;;9.07;100.00
79709;BME280;69203;48.964;9.118;2024-03-23T03:38:39;97934.72;;;9.11;100.00
79709;BME280;69203;48.964;9.118;2024-03-23T03:39:40;97937.47;;;9.21;100.00
79709;BME280;69203;48.964;9.118;2024-03-23T03:40:41;97940.94;;;9.32;100.00
79709;BME280;69203;48.964;9.118;2024-03-23T03:41:42;97944.03;;;9.49;100.00
79709;BME280;69203;48.964;9.118;2024-03-23T03:42:42;97945.13;;;9.46;100.00
79709;BME280;69203;48.964;9.118;2024-03-23T03:43:42;97939.53;;;9.40;100.00
79709;BME280;69203;48.964;9.118;2024-03-23T03:44:42;97928.44;;;9.47;100.00
79709;BME280;69203;48.964;9.118;2024-03-23T03:45:43;97924.97;;;9.58;100.00
79709;BME280;69203;48.964;9.118;2024-03-23T03:46:51;97924.75;;;9.50;100.00
79709;BME280;69203;48.964;9.118;2024-03-23T03:47:51;97920.94;;;9.43;100.00
79709;BME280;69203;48.964;9.118;2024-03-23T03:48:51;97914.03;;;9.42;100.00
79709;BME280;69203;48.964;9.118;2024-03-23T03:49:51;97911.28;;;9.43;100.00
79709;BME280;69203;48.964;9.118;2024-03-23T03:50:52;97895.00;;;9.28;100.00
79709;BME280;69203;48.964;9.118;2024-03-23T03:51:52;97890.66;;;9.05;100.00
79709;BME280;69203;48.964;9.118;2024-03-23T03:52:52;97890.78;;;8.93;100.00
79709;BME280;69203;48.964;9.118;2024-03-23T03:53:53;97875.31;;;8.89;100.00
79709;BME280;69203;48.964;9.118;2024-03-23T03:54:59;97879.47;;;8.81;100.00
79709;BME280;69203;48.964;9.118;2024-03-23T03:56:02;97866.13;;;8.84;100.00
79709;BME280;69203;48.964;9.118;2024-03-23T03:57:02;97863.44;;;8.97;100.00
79709;BME280;69203;48.964;9.118;2024-03-23T03:58:03;97865.31;;;8.95;100.00
79709;BME280;69203;48.964;9.118;2024-03-23T03:59:04;97862.47;;;8.86;100.00
79709;BME280;69203;48.964;9.118;2024-03-23T04:00:05;97864.59;;;8.81;100.00
79709;BME280;69203;48.964;9.118;2024-03-23T04:01:06;97871.63;;;8.81;100.00
79709;BME280;69203;48.964;9.118;2024-03-23T04:02:06;97865.66;;;8.79;100.00
79709;BME280;69203;48.964;9.118;2024-03-23T04:03:06;97866.72;;;8.76;100.00
79709;BME280;69203;48.964;9.118;2024-03-23T04:04:06;97861.72;;;8.73;100.00
79709;BME280;69203;48.964;9.118;2024-03-23T04:05:07;97864.59;;;8.81;100.00
79709;BME280;69203;48.964;9.118;2024-03-23T04:06:09;97871.72;;;8.79;100.00
79709;BME280;69203;48.964;9.118;2024-03-23T04:07:10;97884.44;;;8.84;100.00
79709;BME280;69203;48.964;9.118;2024-03-23T04:08:10;97878.53;;;8.93;100.00
79709;BME280;69203;48.964;9.118;2024-03-23T04:09:10;97876.88;;;8.92;100.00
79709;BME280;69203;48.964;9.118;2024-03-23T04:10:10;97881.28;;;9.03;100.00
79709;BME280;69203;48.964;9.118;2024-03-23T04:11:11;97878.78;;;9.01;100.00
79709;BME280;69203;48.964;9.118;2024-03-23T04:12:11;97885.91;;;8.99;100.00
79709;BME280;69203;48.964;9.118;2024-03-23T04:13:12;97886.41;;;9.26;100.00
79709;BME280;69203;48.964;9.118;2024-03-23T04:14:13;97882.47;;;9.21;100.00
79709;BME280;69203;48.964;9.118;2024-03-23T04:15:14;97888.53;;;9.21;100.00
79709;BME280;69203;48.964;9.118;2024-03-23T04:16:24;97891.06;;;9.34;100.00
79709;BME280;69203;48.964;9.118;2024-03-23T04:17:24;97890.69;;;9.39;100.00
79709;BME280;69203;48.964;9.118;2024-03-23T04:18:25;97887.97;;;9.40;100.00
79709;BME280;69203;48.964;9.118;2024-03-23T04:19:25;97900.34;;;9.38;100.00
79709;BME280;69203;48.964;9.118;2024-03-23T04:20:25;97903.22;;;9.35;100.00
79709;BME280;69203;48.964;9.118;2024-03-23T04:21:25;97906.66;;;9.36;100.00
79709;BME280;69203;48.964;9.118;2024-03-23T04:22:26;97913.69;;;9.35;100.00
79709;BME280;69203;48.964;9.118;2024-03-23T04:23:26;97912.84;;;9.35;100.00
79709;BME280;69203;48.964;9.118;2024-03-23T04:24:26;97907.81;;;9.31;100.00
79709;BME280;69203;48.964;9.118;2024-03-23T04:25:26;97907.50;;;9.25;100.00
79709;BME280;69203;48.964;9.118;2024-03-23T04:26:27;97911.63;;;9.05;100.00
79709;BME280;69203;48.964;9.118;2024-03-23T04:27:27;97899.94;;;8.87;100.00
79709;BME280;69203;48.964;9.118;2024-03-23T04:28:27;97891.25;;;8.86;100.00
79709;BME280;69203;48.964;9.118;2024-03-23T04:29:27;97888.97;;;8.71;100.00
79709;BME280;69203;48.964;9.118;2024-03-23T04:30:28;97884.56;;;8.71;100.00
79709;BME280;69203;48.964;9.118;2024-03-23T04:31:29;97886.94;;;8.74;100.00
79709;BME280;69203;48.964;9.118;2024-03-23T04:32:29;97886.72;;;8.77;100.00
79709;BME280;69203;48.964;9.118;2024-03-23T04:33:29;97866.59;;;8.78;100.00
79709;BME280;69203;48.964;9.118;2024-03-23T04:34:30;97879.50;;;8.92;100.00
79709;BME280;69203;48.964;9.118;2024-03-23T04:35:30;97871.75;;;8.90;100.00
79709;BME280;69203;48.964;9.118;2024-03-23T04:36:31;97871.16;;;8.98;100.00
79709;BME280;69203;48.964;9.118;2024-03-23T04:37:34;97884.25;;;8.98;100.00
79709;BME280;69203;48.964;9.118;2024-03-23T04:38:34;97887.22;;;9.05;100.00
79709;BME280;69203;48.964;9.118;2024-03-23T04:39:37;97876.63;;;9.06;100.00
79709;BME280;69203;48.964;9.118;2024-03-23T04:40:38;97873.91;;;9.08;100.00
79709;BME280;69203;48.964;9.118;2024-03-23T04:41:38;97879.03;;;9.09;100.00
79709;BME280;69203;48.964;9.118;2024-03-23T04:42:39;97880.94;;;9.07;100.00
79709;BME280;69203;48.964;9.118;2024-03-23T04:43:39;97889.84;;;9.05;100.00
79709;BME280;69203;48.964;9.118;2024-03-23T04:44:40;97888.41;;;9.01;100.00
79709;BME280;69203;48.964;9.118;2024-03-23T04:45:40;97888.19;;;9.04;100.00
79709;BME280;69203;48.964;9.118;2024-03-23T04:46:41;97886.63;;;9.01;100.00
79709;BME280;69203;48.964;9.118;2024-03-23T04:47:41;97891.13;;;8.99;100.00
79709;BME280;69203;48.964;9.118;2024-03-23T04:48:42;97904.13;;;9.01;100.00
79709;BME280;69203;48.964;9.118;2024-03-23T04:49:44;97906.63;;;9.02;100.00
79709;BME280;69203;48.964;9.118;2024-03-23T04:50:44;97911.75;;;9.04;100.00
79709;BME280;69203;48.964;9.118;2024-03-23T04:51:44;97914.47;;;9.02;100.00
79709;BME280;69203;48.964;9.118;2024-03-23T04:52:46;97929.84;;;9.07;100.00
79709;BME280;69203;48.964;9.118;2024-03-23T04:53:46;97925.31;;;9.09;100.00
79709;BME280;69203;48.964;9.118;2024-03-23T04:54:46;97934.38;;;9.16;100.00
79709;BME280;69203;48.964;9.118;2024-03-23T04:55:47;97941.38;;;9.15;100.00
79709;BME280;69203;48.964;9.118;2024-03-23T04:56:47;97947.81;;;9.22;100.00
79709;BME280;69203;48.964;9.118;2024-03-23T04:57:49;97954.84;;;9.22;100.00
79709;BME280;69203;48.964;9.118;2024-03-23T04:58:49;97955.94;;;9.19;100.00
79709;BME280;69203;48.964;9.118;2024-03-23T04:59:49;97959.38;;;9.20;100.00
79709;BME280;69203;48.964;9.118;2024-03-23T05:00:53;97957.94;;;9.16;100.00
79709;BME280;69203;48.964;9.118;2024-03-23T05:01:53;97958.66;;;9.18;100.00
79709;BME280;69203;48.964;9.118;2024-03-23T05:02:53;97957.94;;;9.16;100.00
79709;BME280;69203;48.964;9.118;2024-03-23T05:03:53;97957.22;;;9.14;100.00
79709;BME280;69203;48.964;9.118;2024-03-23T05:04:54;97953.63;;;9.15;100.00
79709;BME280;69203;48.964;9.118;2024-03-23T05:05:54;97957.09;;;9.15;100.00
79709;BME280;69203;48.964;9.118;2024-03-23T05:06:56;97965.69;;;9.17;100.00
79709;BME280;69203;48.964;9.118;2024-03-23T05:07:56;97963.16;;;9.16;100.00
79709;BME280;69203;48.964;9.118;2024-03-23T05:08:57;97959.50;;;9.18;100.00
79709;BME280;69203;48.964;9.118;2024-03-23T05:09:57;97959.50;;;9.18;100.00
79709;BME280;69203;48.964;9.118;2024-03-23T05:10:57;97965.91;;;9.14;100.00
79709;BME280;69203;48.964;9.118;2024-03-23T05:11:57;97968.16;;;9.08;100.00
79709;BME280;69203;48.964;9.118;2024-03-23T05:12:58;97971.25;;;9.13;100.00
79709;BME280;69203;48.964;9.118;2024-03-23T05:13:59;97973.50;;;9.06;100.00
79709;BME280;69203;48.964;9.118;2024-03-23T05:14:59;97977.31;;;9.02;100.00
79709;BME280;69203;48.964;9.118;2024-03-23T05:15:59;97988.63;;;9.03;100.00
79709;BME280;69203;48.964;9.118;2024-03-23T05:16:59;97975.28;;;9.06;100.00
79709;BME280;69203;48.964;9.118;2024-03-23T05:18:00;97991.25;;;9.03;100.00
79709;BME280;69203;48.964;9.118;2024-03-23T05:19:00;97980.88;;;9.01;100.00
79709;BME280;69203;48.964;9.118;2024-03-23T05:20:01;97988.97;;;8.98;100.00
79709;BME280;69203;48.964;9.118;2024-03-23T05:21:01;97995.63;;;9.02;100.00
79709;BME280;69203;48.964;9.118;2024-03-23T05:22:01;97995.75;;;9.01;100.00
79709;BME280;69203;48.964;9.118;2024-03-23T05:23:02;97994.41;;;8.95;100.00
79709;BME280;69203;48.964;9.118;2024-03-23T05:24:02;97996.19;;;8.95;100.00
79709;BME280;69203;48.964;9.118;2024-03-23T05:25:03;97989.28;;;8.94;100.00
79709;BME280;69203;48.964;9.118;2024-03-23T05:26:04;98005.13;;;8.92;100.00
79709;BME280;69203;48.964;9.118;2024-03-23T05:27:05;98007.59;;;8.94;100.00
79709;BME280;69203;48.964;9.118;2024-03-23T05:28:06;98003.94;;;8.96;100.00
79709;BME280;69203;48.964;9.118;2024-03-23T05:29:06;98016.44;;;8.93;100.00
79709;BME280;69203;48.964;9.118;2024-03-23T05:30:10;98020.84;;;8.92;100.00
79709;BME280;69203;48.964;9.118;2024-03-23T05:31:11;98021.53;;;8.94;100.00
79709;BME280;69203;48.964;9.118;2024-03-23T05:32:11;98021.66;;;8.93;100.00
79709;BME280;69203;48.964;9.118;2024-03-23T05:33:11;98045.22;;;8.93;100.00
79709;BME280;69203;48.964;9.118;2024-03-23T05:34:12;98035.69;;;8.92;100.00
79709;BME280;69203;48.964;9.118;2024-03-23T05:35:12;98043.88;;;8.87;100.00
79709;BME280;69203;48.964;9.118;2024-03-23T05:36:12;98028.63;;;8.81;100.00
79709;BME280;69203;48.964;9.118;2024-03-23T05:37:12;98040.78;;;8.82;100.00
79709;BME280;69203;48.964;9.118;2024-03-23T05:38:13;98038.50;;;8.77;100.00
79709;BME280;69203;48.964;9.118;2024-03-23T05:39:14;98034.31;;;8.75;100.00
79709;BME280;69203;48.964;9.118;2024-03-23T05:40:16;98047.75;;;8.70;100.00
79709;BME280;69203;48.964;9.118;2024-03-23T05:41:16;98045.31;;;8.67;100.00
79709;BME280;69203;48.964;9.118;2024-03-23T05:42:17;98047.13;;;8.67;100.00
79709;BME280;69203;48.964;9.118;2024-03-23T05:43:17;98058.13;;;8.59;100.00
79709;BME280;69203;48.964;9.118;2024-03-23T05:44:17;98040.56;;;8.61;100.00
79709;BME280;69203;48.964;9.118;2024-03-23T05:45:18;98044.97;;;8.61;100.00
79709;BME280;69203;48.964;9.118;2024-03-23T05:46:19;98051.97;;;8.60;100.00
79709;BME280;69203;48.964;9.118;2024-03-23T05:47:19;98039.81;;;8.59;100.00
79709;BME280;69203;48.964;9.118;2024-03-23T05:48:19;98045.91;;;8.60;100.00
79709;BME280;69203;48.964;9.118;2024-03-23T05:49:19;98059.72;;;8.62;100.00
79709;BME280;69203;48.964;9.118;2024-03-23T05:50:21;98069.44;;;8.60;100.00
79709;BME280;69203;48.964;9.118;2024-03-23T05:51:21;98072.91;;;8.60;100.00
79709;BME280;69203;48.964;9.118;2024-03-23T05:52:21;98073.84;;;8.59;100.00
79709;BME280;69203;48.964;9.118;2024-03-23T05:53:22;98086.81;;;8.61;100.00
79709;BME280;69203;48.964;9.118;2024-03-23T05:54:22;98092.16;;;8.59;100.00
79709;BME280;69203;48.964;9.118;2024-03-23T05:55:22;98099.16;;;8.59;100.00
79709;BME280;69203;48.964;9.118;2024-03-23T05:56:22;98097.63;;;8.56;100.00
79709;BME280;69203;48.964;9.118;2024-03-23T05:57:26;98108.06;;;8.56;100.00
79709;BME280;69203;48.964;9.118;2024-03-23T05:58:26;98104.13;;;8.51;100.00
79709;BME280;69203;48.964;9.118;2024-03-23T05:59:27;98115.28;;;8.53;100.00
79709;BME280;69203;48.964;9.118;2024-03-23T06:00:27;98125.66;;;8.54;100.00
79709;BME280;69203;48.964;9.118;2024-03-23T06:01:28;98123.78;;;8.56;100.00
79709;BME280;69203;48.964;9.118;2024-03-23T06:02:28;98117.19;;;8.51;100.00
79709;BME280;69203;48.964;9.118;2024-03-23T06:03:29;98112.06;;;8.49;100.00
79709;BME280;69203;48.964;9.118;2024-03-23T06:04:29;98106.31;;;8.44;100.00
79709;BME280;69203;48.964;9.118;2024-03-23T06:05:30;98099.50;;;8.41;100.00
79709;BME280;69203;48.964;9.118;2024-03-23T06:06:30;98097.03;;;8.40;100.00
79709;BME280;69203;48.964;9.118;2024-03-23T06:07:30;98090.31;;;8.36;100.00
79709;BME280;69203;48.964;9.118;2024-03-23T06:08:31;98090.03;;;8.40;100.00
79709;BME280;69203;48.964;9.118;2024-03-23T06:09:32;98098.16;;;8.36;100.00
79709;BME280;69203;48.964;9.118;2024-03-23T06:10:32;98088.03;;;8.31;100.00
79709;BME280;69203;48.964;9.118;2024-03-23T06:11:32;98084.03;;;8.26;100.00
79709;BME280;69203;48.964;9.118;2024-03-23T06:12:33;98086.78;;;8.24;100.00
79709;BME280;69203;48.964;9.118;2024-03-23T06:13:33;98094.13;;;8.19;100.00